sensor_id;sensor_type;location;lat;lon;timestamp;temperature;humidity
63051;SHT30;49136;47.416;19.402;2023-05-10T00:01:46;9.24;89.91
63051;SHT30;49136;47.416;19.402;2023-05-10T00:04:11;9.32;89.80
63051;SHT30;49136;47.416;19.402;2023-05-10T00:06:36;9.35;89.93
63051;SHT30;49136;47.416;19.402;2023-05-10T00:09:02;9.36;89.41
63051;SHT30;49136;47.416;19.402;2023-05-10T00:11:28;9.46;89.70
63051;SHT30;49136;47.416;19.402;2023-05-10T00:13:53;9.55;89.19
63051;SHT30;49136;47.416;19.402;2023-05-10T00:16:19;9.55;89.48
63051;SHT30;49136;47.416;19.402;2023-05-10T00:18:44;9.59;89.21
63051;SHT30;49136;47.416;19.402;2023-05-10T00:21:10;9.86;89.86
63051;SHT30;49136;47.416;19.402;2023-05-10T00:23:35;9.99;89.44
63051;SHT30;49136;47.416;19.402;2023-05-10T00:26:01;10.42;89.70
63051;SHT30;49136;47.416;19.402;2023-05-10T00:28:27;10.70;89.02
63051;SHT30;49136;47.416;19.402;2023-05-10T00:30:53;10.85;88.78
63051;SHT30;49136;47.416;19.402;2023-05-10T00:33:19;11.04;87.96
63051;SHT30;49136;47.416;19.402;2023-05-10T00:35:44;11.14;87.53
63051;SHT30;49136;47.416;19.402;2023-05-10T00:38:10;11.14;87.69
63051;SHT30;49136;47.416;19.402;2023-05-10T00:40:36;11.23;87.15
63051;SHT30;49136;47.416;19.402;2023-05-10T00:43:02;11.26;86.69
63051;SHT30;49136;47.416;19.402;2023-05-10T00:45:30;11.36;86.26
63051;SHT30;49136;47.416;19.402;2023-05-10T00:47:56;11.42;86.68
63051;SHT30;49136;47.416;19.402;2023-05-10T00:50:22;11.40;88.46
63051;SHT30;49136;47.416;19.402;2023-05-10T00:52:48;11.43;87.14
63051;SHT30;49136;47.416;19.402;2023-05-10T00:55:14;11.37;88.14
63051;SHT30;49136;47.416;19.402;2023-05-10T00:57:40;11.39;88.71
63051;SHT30;49136;47.416;19.402;2023-05-10T01:00:06;11.37;88.74
63051;SHT30;49136;47.416;19.402;2023-05-10T01:02:33;11.33;89.27
63051;SHT30;49136;47.416;19.402;2023-05-10T01:04:59;11.37;89.97
63051;SHT30;49136;47.416;19.402;2023-05-10T01:07:25;11.40;89.53
63051;SHT30;49136;47.416;19.402;2023-05-10T01:09:50;11.36;89.46
63051;SHT30;49136;47.416;19.402;2023-05-10T01:12:16;11.37;91.17
63051;SHT30;49136;47.416;19.402;2023-05-10T01:14:41;11.34;90.48
63051;SHT30;49136;47.416;19.402;2023-05-10T01:17:07;11.42;89.56
63051;SHT30;49136;47.416;19.402;2023-05-10T01:19:35;11.34;90.88
63051;SHT30;49136;47.416;19.402;2023-05-10T01:22:15;11.36;89.71
63051;SHT30;49136;47.416;19.402;2023-05-10T01:36:58;11.34;89.63
63051;SHT30;49136;47.416;19.402;2023-05-10T01:42:21;11.27;89.33
63051;SHT30;49136;47.416;19.402;2023-05-10T01:45:29;11.27;89.64
63051;SHT30;49136;47.416;19.402;2023-05-10T01:48:05;11.16;90.36
63051;SHT30;49136;47.416;19.402;2023-05-10T01:50:32;11.01;91.87
63051;SHT30;49136;47.416;19.402;2023-05-10T01:52:59;10.84;93.55
63051;SHT30;49136;47.416;19.402;2023-05-10T01:55:28;10.45;94.08
63051;SHT30;49136;47.416;19.402;2023-05-10T01:58:07;10.39;94.98
63051;SHT30;49136;47.416;19.402;2023-05-10T02:00:34;10.35;95.33
63051;SHT30;49136;47.416;19.402;2023-05-10T02:03:04;10.36;95.27
63051;SHT30;49136;47.416;19.402;2023-05-10T02:05:32;10.39;95.48
63051;SHT30;49136;47.416;19.402;2023-05-10T02:07:59;10.36;95.64
63051;SHT30;49136;47.416;19.402;2023-05-10T02:10:27;10.35;95.67
63051;SHT30;49136;47.416;19.402;2023-05-10T02:12:54;10.36;95.43
63051;SHT30;49136;47.416;19.402;2023-05-10T02:15:23;10.35;95.40
63051;SHT30;49136;47.416;19.402;2023-05-10T02:17:50;10.43;94.68
63051;SHT30;49136;47.416;19.402;2023-05-10T02:20:18;10.40;94.56
63051;SHT30;49136;47.416;19.402;2023-05-10T02:22:45;10.49;93.63
63051;SHT30;49136;47.416;19.402;2023-05-10T02:25:13;10.46;93.58
63051;SHT30;49136;47.416;19.402;2023-05-10T02:27:40;10.48;93.47
63051;SHT30;49136;47.416;19.402;2023-05-10T02:30:07;10.46;93.37
63051;SHT30;49136;47.416;19.402;2023-05-10T02:32:33;10.40;93.27
63051;SHT30;49136;47.416;19.402;2023-05-10T02:35:01;10.50;91.77
63051;SHT30;49136;47.416;19.402;2023-05-10T02:37:28;10.48;91.89
63051;SHT30;49136;47.416;19.402;2023-05-10T02:39:54;10.53;90.62
63051;SHT30;49136;47.416;19.402;2023-05-10T02:42:24;10.56;89.92
63051;SHT30;49136;47.416;19.402;2023-05-10T02:44:53;10.56;89.84
63051;SHT30;49136;47.416;19.402;2023-05-10T02:47:19;10.53;89.78
63051;SHT30;49136;47.416;19.402;2023-05-10T02:49:45;10.49;89.68
63051;SHT30;49136;47.416;19.402;2023-05-10T02:52:23;10.49;89.56
63051;SHT30;49136;47.416;19.402;2023-05-10T02:54:52;10.46;89.89
63051;SHT30;49136;47.416;19.402;2023-05-10T02:57:26;10.43;90.25
63051;SHT30;49136;47.416;19.402;2023-05-10T02:59:52;10.36;91.13
63051;SHT30;49136;47.416;19.402;2023-05-10T03:02:18;10.33;91.20
63051;SHT30;49136;47.416;19.402;2023-05-10T03:04:43;10.35;91.15
63051;SHT30;49136;47.416;19.402;2023-05-10T03:07:09;10.32;90.56
63051;SHT30;49136;47.416;19.402;2023-05-10T03:09:35;10.31;90.35
63051;SHT30;49136;47.416;19.402;2023-05-10T03:12:11;10.39;89.59
63051;SHT30;49136;47.416;19.402;2023-05-10T03:17:57;10.38;89.63
63051;SHT30;49136;47.416;19.402;2023-05-10T03:20:36;10.33;89.86
63051;SHT30;49136;47.416;19.402;2023-05-10T03:23:12;10.28;90.67
63051;SHT30;49136;47.416;19.402;2023-05-10T03:25:39;10.18;92.88
63051;SHT30;49136;47.416;19.402;2023-05-10T03:28:07;10.08;94.32
63051;SHT30;49136;47.416;19.402;2023-05-10T03:30:33;10.01;95.36
63051;SHT30;49136;47.416;19.402;2023-05-10T03:33:04;9.90;96.22
63051;SHT30;49136;47.416;19.402;2023-05-10T03:35:31;9.91;96.12
63051;SHT30;49136;47.416;19.402;2023-05-10T03:37:56;9.83;96.78
63051;SHT30;49136;47.416;19.402;2023-05-10T03:40:21;9.80;96.92
63051;SHT30;49136;47.416;19.402;2023-05-10T03:42:48;9.83;95.86
63051;SHT30;49136;47.416;19.402;2023-05-10T03:45:13;9.97;94.34
63051;SHT30;49136;47.416;19.402;2023-05-10T03:47:38;9.98;93.37
63051;SHT30;49136;47.416;19.402;2023-05-10T03:50:04;10.08;92.74
63051;SHT30;49136;47.416;19.402;2023-05-10T03:52:30;10.11;92.57
63051;SHT30;49136;47.416;19.402;2023-05-10T03:54:56;10.12;93.91
63051;SHT30;49136;47.416;19.402;2023-05-10T03:57:21;9.98;95.42
63051;SHT30;49136;47.416;19.402;2023-05-10T03:59:46;9.76;96.63
63051;SHT30;49136;47.416;19.402;2023-05-10T04:02:12;9.67;96.86
63051;SHT30;49136;47.416;19.402;2023-05-10T04:04:37;9.57;96.89
63051;SHT30;49136;47.416;19.402;2023-05-10T04:07:03;9.46;96.25
63051;SHT30;49136;47.416;19.402;2023-05-10T04:09:28;9.50;96.05
63051;SHT30;49136;47.416;19.402;2023-05-10T04:11:53;9.36;96.02
63051;SHT30;49136;47.416;19.402;2023-05-10T04:14:19;9.32;95.89
63051;SHT30;49136;47.416;19.402;2023-05-10T04:16:44;9.42;95.48
63051;SHT30;49136;47.416;19.402;2023-05-10T04:19:10;9.43;95.00
63051;SHT30;49136;47.416;19.402;2023-05-10T04:21:36;9.31;95.06
63051;SHT30;49136;47.416;19.402;2023-05-10T04:24:01;9.43;95.17
63051;SHT30;49136;47.416;19.402;2023-05-10T04:26:27;9.50;94.92
63051;SHT30;49136;47.416;19.402;2023-05-10T04:28:52;9.66;94.22
63051;SHT30;49136;47.416;19.402;2023-05-10T04:31:18;9.90;93.57
63051;SHT30;49136;47.416;19.402;2023-05-10T04:33:43;9.95;93.04
63051;SHT30;49136;47.416;19.402;2023-05-10T04:36:09;9.94;93.41
63051;SHT30;49136;47.416;19.402;2023-05-10T04:38:34;10.21;92.51
63051;SHT30;49136;47.416;19.402;2023-05-10T04:41:07;10.24;91.99
63051;SHT30;49136;47.416;19.402;2023-05-10T04:43:33;10.28;91.78
63051;SHT30;49136;47.416;19.402;2023-05-10T04:45:58;10.42;91.50
63051;SHT30;49136;47.416;19.402;2023-05-10T04:48:24;10.35;91.50
63051;SHT30;49136;47.416;19.402;2023-05-10T04:50:49;10.61;91.19
63051;SHT30;49136;47.416;19.402;2023-05-10T04:53:15;10.95;89.87
63051;SHT30;49136;47.416;19.402;2023-05-10T04:55:40;11.01;90.00
63051;SHT30;49136;47.416;19.402;2023-05-10T04:58:05;11.05;90.18
63051;SHT30;49136;47.416;19.402;2023-05-10T05:00:31;11.59;89.19
63051;SHT30;49136;47.416;19.402;2023-05-10T05:02:57;11.39;88.54
63051;SHT30;49136;47.416;19.402;2023-05-10T05:05:22;11.74;88.46
63051;SHT30;49136;47.416;19.402;2023-05-10T05:07:47;11.88;87.58
63051;SHT30;49136;47.416;19.402;2023-05-10T05:10:13;12.09;87.34
63051;SHT30;49136;47.416;19.402;2023-05-10T05:12:38;12.22;86.61
63051;SHT30;49136;47.416;19.402;2023-05-10T05:15:04;12.13;87.44
63051;SHT30;49136;47.416;19.402;2023-05-10T05:17:30;12.26;87.20
63051;SHT30;49136;47.416;19.402;2023-05-10T05:19:56;12.71;88.20
63051;SHT30;49136;47.416;19.402;2023-05-10T05:22:21;12.91;85.90
63051;SHT30;49136;47.416;19.402;2023-05-10T05:24:56;12.92;85.91
63051;SHT30;49136;47.416;19.402;2023-05-10T05:27:23;13.06;85.26
63051;SHT30;49136;47.416;19.402;2023-05-10T05:29:55;13.45;84.57
63051;SHT30;49136;47.416;19.402;2023-05-10T05:32:21;13.23;84.62
63051;SHT30;49136;47.416;19.402;2023-05-10T05:34:47;12.85;83.92
63051;SHT30;49136;47.416;19.402;2023-05-10T05:37:16;13.37;83.24
63051;SHT30;49136;47.416;19.402;2023-05-10T05:39:42;13.65;81.92
63051;SHT30;49136;47.416;19.402;2023-05-10T05:42:09;13.59;81.72
63051;SHT30;49136;47.416;19.402;2023-05-10T05:44:35;13.72;82.70
63051;SHT30;49136;47.416;19.402;2023-05-10T05:47:00;14.09;81.49
63051;SHT30;49136;47.416;19.402;2023-05-10T05:49:26;14.12;79.86
63051;SHT30;49136;47.416;19.402;2023-05-10T05:51:51;14.30;79.94
63051;SHT30;49136;47.416;19.402;2023-05-10T05:54:17;14.82;79.46
63051;SHT30;49136;47.416;19.402;2023-05-10T05:56:42;14.65;79.63
63051;SHT30;49136;47.416;19.402;2023-05-10T05:59:09;14.79;77.11
63051;SHT30;49136;47.416;19.402;2023-05-10T06:01:34;14.38;78.04
63051;SHT30;49136;47.416;19.402;2023-05-10T06:04:00;14.64;77.95
63051;SHT30;49136;47.416;19.402;2023-05-10T06:06:26;14.71;78.21
63051;SHT30;49136;47.416;19.402;2023-05-10T06:08:52;14.77;76.55
63051;SHT30;49136;47.416;19.402;2023-05-10T06:11:17;14.09;78.66
63051;SHT30;49136;47.416;19.402;2023-05-10T06:13:42;14.94;77.60
63051;SHT30;49136;47.416;19.402;2023-05-10T06:16:08;14.99;75.99
63051;SHT30;49136;47.416;19.402;2023-05-10T06:18:33;15.24;74.20
63051;SHT30;49136;47.416;19.402;2023-05-10T06:20:59;15.79;75.28
63051;SHT30;49136;47.416;19.402;2023-05-10T06:23:25;15.55;73.85
63051;SHT30;49136;47.416;19.402;2023-05-10T06:25:51;15.52;74.25
63051;SHT30;49136;47.416;19.402;2023-05-10T06:28:17;15.36;73.13
63051;SHT30;49136;47.416;19.402;2023-05-10T06:30:42;15.06;74.16
63051;SHT30;49136;47.416;19.402;2023-05-10T06:33:08;15.07;74.50
63051;SHT30;49136;47.416;19.402;2023-05-10T06:35:33;15.87;74.25
63051;SHT30;49136;47.416;19.402;2023-05-10T06:37:59;15.97;71.84
63051;SHT30;49136;47.416;19.402;2023-05-10T06:40:25;16.46;72.61
63051;SHT30;49136;47.416;19.402;2023-05-10T06:42:50;16.19;71.04
63051;SHT30;49136;47.416;19.402;2023-05-10T06:45:16;16.00;72.20
63051;SHT30;49136;47.416;19.402;2023-05-10T06:47:42;16.59;72.16
63051;SHT30;49136;47.416;19.402;2023-05-10T06:50:08;16.77;71.00
63051;SHT30;49136;47.416;19.402;2023-05-10T06:52:34;15.77;71.25
63051;SHT30;49136;47.416;19.402;2023-05-10T06:55:00;16.45;72.38
63051;SHT30;49136;47.416;19.402;2023-05-10T06:57:26;16.11;73.49
63051;SHT30;49136;47.416;19.402;2023-05-10T06:59:51;15.71;74.04
63051;SHT30;49136;47.416;19.402;2023-05-10T07:02:17;16.81;73.20
63051;SHT30;49136;47.416;19.402;2023-05-10T07:04:42;17.26;69.83
63051;SHT30;49136;47.416;19.402;2023-05-10T07:07:08;18.53;71.08
63051;SHT30;49136;47.416;19.402;2023-05-10T07:09:33;19.33;67.17
63051;SHT30;49136;47.416;19.402;2023-05-10T07:11:59;18.95;64.98
63051;SHT30;49136;47.416;19.402;2023-05-10T07:14:24;18.26;66.00
63051;SHT30;49136;47.416;19.402;2023-05-10T07:16:50;17.42;67.63
63051;SHT30;49136;47.416;19.402;2023-05-10T07:19:15;17.55;66.76
63051;SHT30;49136;47.416;19.402;2023-05-10T07:21:40;17.29;68.02
63051;SHT30;49136;47.416;19.402;2023-05-10T07:24:08;17.23;68.88
63051;SHT30;49136;47.416;19.402;2023-05-10T07:26:34;16.84;72.71
63051;SHT30;49136;47.416;19.402;2023-05-10T07:28:59;17.22;69.99
63051;SHT30;49136;47.416;19.402;2023-05-10T07:31:24;16.74;70.12
63051;SHT30;49136;47.416;19.402;2023-05-10T07:33:50;17.02;70.58
63051;SHT30;49136;47.416;19.402;2023-05-10T07:36:15;17.39;69.30
63051;SHT30;49136;47.416;19.402;2023-05-10T07:38:41;16.76;68.84
63051;SHT30;49136;47.416;19.402;2023-05-10T07:41:06;17.28;69.74
63051;SHT30;49136;47.416;19.402;2023-05-10T07:43:31;18.17;68.56
63051;SHT30;49136;47.416;19.402;2023-05-10T07:45:57;18.16;65.72
63051;SHT30;49136;47.416;19.402;2023-05-10T07:48:25;18.81;68.05
63051;SHT30;49136;47.416;19.402;2023-05-10T07:50:50;18.08;65.64
63051;SHT30;49136;47.416;19.402;2023-05-10T07:53:15;16.60;68.47
63051;SHT30;49136;47.416;19.402;2023-05-10T07:55:41;16.24;70.23
63051;SHT30;49136;47.416;19.402;2023-05-10T07:58:07;16.25;71.31
63051;SHT30;49136;47.416;19.402;2023-05-10T08:00:33;16.70;70.44
63051;SHT30;49136;47.416;19.402;2023-05-10T08:02:59;17.16;68.74
63051;SHT30;49136;47.416;19.402;2023-05-10T08:05:24;16.80;71.22
63051;SHT30;49136;47.416;19.402;2023-05-10T08:07:50;17.28;69.15
63051;SHT30;49136;47.416;19.402;2023-05-10T08:10:15;17.49;70.30
63051;SHT30;49136;47.416;19.402;2023-05-10T08:12:41;16.88;68.86
63051;SHT30;49136;47.416;19.402;2023-05-10T08:15:08;17.20;69.82
63051;SHT30;49136;47.416;19.402;2023-05-10T08:17:34;17.53;70.68
63051;SHT30;49136;47.416;19.402;2023-05-10T08:19:59;18.08;69.66
63051;SHT30;49136;47.416;19.402;2023-05-10T08:22:25;17.59;67.36
63051;SHT30;49136;47.416;19.402;2023-05-10T08:24:50;17.47;67.58
63051;SHT30;49136;47.416;19.402;2023-05-10T08:27:15;17.32;68.47
63051;SHT30;49136;47.416;19.402;2023-05-10T08:29:41;17.30;68.86
63051;SHT30;49136;47.416;19.402;2023-05-10T08:32:06;17.18;69.89
63051;SHT30;49136;47.416;19.402;2023-05-10T08:34:32;18.55;68.89
63051;SHT30;49136;47.416;19.402;2023-05-10T08:36:58;17.71;67.18
63051;SHT30;49136;47.416;19.402;2023-05-10T08:39:23;18.51;66.38
63051;SHT30;49136;47.416;19.402;2023-05-10T08:41:51;18.91;70.14
63051;SHT30;49136;47.416;19.402;2023-05-10T08:44:18;18.88;64.53
63051;SHT30;49136;47.416;19.402;2023-05-10T08:46:46;18.96;64.84
63051;SHT30;49136;47.416;19.402;2023-05-10T08:49:13;18.20;65.63
63051;SHT30;49136;47.416;19.402;2023-05-10T08:51:45;17.40;67.61
63051;SHT30;49136;47.416;19.402;2023-05-10T08:54:12;17.70;67.34
63051;SHT30;49136;47.416;19.402;2023-05-10T08:56:38;16.84;69.37
63051;SHT30;49136;47.416;19.402;2023-05-10T08:59:03;17.69;67.50
63051;SHT30;49136;47.416;19.402;2023-05-10T09:01:31;17.70;66.39
63051;SHT30;49136;47.416;19.402;2023-05-10T09:03:58;17.45;67.81
63051;SHT30;49136;47.416;19.402;2023-05-10T09:06:23;18.09;66.47
63051;SHT30;49136;47.416;19.402;2023-05-10T09:08:49;18.28;65.91
63051;SHT30;49136;47.416;19.402;2023-05-10T09:11:16;17.69;65.70
63051;SHT30;49136;47.416;19.402;2023-05-10T09:13:41;17.77;67.13
63051;SHT30;49136;47.416;19.402;2023-05-10T09:16:08;17.78;64.90
63051;SHT30;49136;47.416;19.402;2023-05-10T09:18:34;17.20;66.12
63051;SHT30;49136;47.416;19.402;2023-05-10T09:21:00;17.42;65.54
63051;SHT30;49136;47.416;19.402;2023-05-10T09:23:25;18.08;63.61
63051;SHT30;49136;47.416;19.402;2023-05-10T09:26:04;19.00;61.26
63051;SHT30;49136;47.416;19.402;2023-05-10T09:28:34;19.06;62.46
63051;SHT30;49136;47.416;19.402;2023-05-10T09:31:00;19.90;61.96
63051;SHT30;49136;47.416;19.402;2023-05-10T09:33:25;20.49;61.20
63051;SHT30;49136;47.416;19.402;2023-05-10T09:35:53;20.05;60.07
63051;SHT30;49136;47.416;19.402;2023-05-10T09:38:18;19.41;60.98
63051;SHT30;49136;47.416;19.402;2023-05-10T09:40:52;19.41;62.55
63051;SHT30;49136;47.416;19.402;2023-05-10T09:43:20;19.83;62.36
63051;SHT30;49136;47.416;19.402;2023-05-10T09:45:48;19.81;58.74
63051;SHT30;49136;47.416;19.402;2023-05-10T09:48:14;18.53;60.10
63051;SHT30;49136;47.416;19.402;2023-05-10T09:50:40;18.71;61.66
63051;SHT30;49136;47.416;19.402;2023-05-10T09:53:06;19.17;60.50
63051;SHT30;49136;47.416;19.402;2023-05-10T09:58:03;18.98;61.22
63051;SHT30;49136;47.416;19.402;2023-05-10T10:00:35;18.84;59.57
63051;SHT30;49136;47.416;19.402;2023-05-10T10:03:01;18.87;60.27
63051;SHT30;49136;47.416;19.402;2023-05-10T10:05:30;19.38;60.11
63051;SHT30;49136;47.416;19.402;2023-05-10T10:08:00;19.65;59.77
63051;SHT30;49136;47.416;19.402;2023-05-10T10:10:27;20.34;58.99
63051;SHT30;49136;47.416;19.402;2023-05-10T10:12:54;19.72;58.25
63051;SHT30;49136;47.416;19.402;2023-05-10T10:15:23;19.10;59.98
63051;SHT30;49136;47.416;19.402;2023-05-10T10:17:49;18.71;61.28
63051;SHT30;49136;47.416;19.402;2023-05-10T10:20:16;18.36;61.79
63051;SHT30;49136;47.416;19.402;2023-05-10T10:22:41;18.25;61.59
63051;SHT30;49136;47.416;19.402;2023-05-10T10:25:10;19.78;60.29
63051;SHT30;49136;47.416;19.402;2023-05-10T10:27:47;20.47;56.33
63051;SHT30;49136;47.416;19.402;2023-05-10T10:30:21;20.77;57.43
63051;SHT30;49136;47.416;19.402;2023-05-10T10:35:35;20.44;55.11
63051;SHT30;49136;47.416;19.402;2023-05-10T10:38:00;20.18;57.21
63051;SHT30;49136;47.416;19.402;2023-05-10T10:40:28;19.58;58.27
63051;SHT30;49136;47.416;19.402;2023-05-10T10:42:54;19.10;60.46
63051;SHT30;49136;47.416;19.402;2023-05-10T10:45:20;19.51;60.00
63051;SHT30;49136;47.416;19.402;2023-05-10T10:47:47;18.76;58.47
63051;SHT30;49136;47.416;19.402;2023-05-10T10:50:12;19.94;59.35
63051;SHT30;49136;47.416;19.402;2023-05-10T10:55:16;19.94;56.61
63051;SHT30;49136;47.416;19.402;2023-05-10T10:57:55;20.52;55.13
63051;SHT30;49136;47.416;19.402;2023-05-10T11:03:09;20.85;57.18
63051;SHT30;49136;47.416;19.402;2023-05-10T11:05:42;20.90;56.25
63051;SHT30;49136;47.416;19.402;2023-05-10T11:08:27;20.96;54.32
63051;SHT30;49136;47.416;19.402;2023-05-10T11:11:16;21.10;53.94
63051;SHT30;49136;47.416;19.402;2023-05-10T11:13:44;20.73;54.02
63051;SHT30;49136;47.416;19.402;2023-05-10T11:16:15;20.41;54.33
63051;SHT30;49136;47.416;19.402;2023-05-10T11:21:17;21.32;58.50
63051;SHT30;49136;47.416;19.402;2023-05-10T11:23:55;21.07;53.65
63051;SHT30;49136;47.416;19.402;2023-05-10T11:26:23;21.31;55.18
63051;SHT30;49136;47.416;19.402;2023-05-10T11:28:54;21.30;52.69
63051;SHT30;49136;47.416;19.402;2023-05-10T11:31:24;21.00;52.38
63051;SHT30;49136;47.416;19.402;2023-05-10T11:33:53;20.42;54.37
63051;SHT30;49136;47.416;19.402;2023-05-10T11:36:32;21.20;55.29
63051;SHT30;49136;47.416;19.402;2023-05-10T11:38:58;22.42;54.90
63051;SHT30;49136;47.416;19.402;2023-05-10T11:41:24;21.90;54.26
63051;SHT30;49136;47.416;19.402;2023-05-10T11:43:51;21.24;53.58
63051;SHT30;49136;47.416;19.402;2023-05-10T11:46:22;20.83;55.14
63051;SHT30;49136;47.416;19.402;2023-05-10T11:48:57;20.55;55.32
63051;SHT30;49136;47.416;19.402;2023-05-10T11:51:24;20.17;54.32
63051;SHT30;49136;47.416;19.402;2023-05-10T11:53:53;20.20;55.14
63051;SHT30;49136;47.416;19.402;2023-05-10T11:56:19;19.74;55.71
63051;SHT30;49136;47.416;19.402;2023-05-10T11:58:51;19.26;55.72
63051;SHT30;49136;47.416;19.402;2023-05-10T12:01:16;19.03;55.78
63051;SHT30;49136;47.416;19.402;2023-05-10T12:03:42;19.20;55.78
63051;SHT30;49136;47.416;19.402;2023-05-10T12:06:07;19.41;56.85
63051;SHT30;49136;47.416;19.402;2023-05-10T12:08:33;19.66;55.66
63051;SHT30;49136;47.416;19.402;2023-05-10T12:11:07;19.22;56.55
63051;SHT30;49136;47.416;19.402;2023-05-10T12:13:32;19.41;56.89
63051;SHT30;49136;47.416;19.402;2023-05-10T12:16:13;19.62;55.85
63051;SHT30;49136;47.416;19.402;2023-05-10T12:18:40;19.20;55.74
63051;SHT30;49136;47.416;19.402;2023-05-10T12:21:06;19.17;55.86
63051;SHT30;49136;47.416;19.402;2023-05-10T12:23:31;18.99;54.36
63051;SHT30;49136;47.416;19.402;2023-05-10T12:26:02;19.35;53.89
63051;SHT30;49136;47.416;19.402;2023-05-10T12:28:30;19.79;53.83
63051;SHT30;49136;47.416;19.402;2023-05-10T12:30:57;20.69;51.71
63051;SHT30;49136;47.416;19.402;2023-05-10T12:33:23;21.32;52.88
63051;SHT30;49136;47.416;19.402;2023-05-10T12:35:50;21.37;53.29
63051;SHT30;49136;47.416;19.402;2023-05-10T12:38:33;21.35;53.15
63051;SHT30;49136;47.416;19.402;2023-05-10T12:41:00;21.30;55.46
63051;SHT30;49136;47.416;19.402;2023-05-10T12:43:26;21.25;54.08
63051;SHT30;49136;47.416;19.402;2023-05-10T12:45:52;21.32;54.42
63051;SHT30;49136;47.416;19.402;2023-05-10T12:48:17;21.10;52.12
63051;SHT30;49136;47.416;19.402;2023-05-10T12:50:43;20.86;52.89
63051;SHT30;49136;47.416;19.402;2023-05-10T12:53:08;20.68;55.09
63051;SHT30;49136;47.416;19.402;2023-05-10T12:55:34;20.21;52.55
63051;SHT30;49136;47.416;19.402;2023-05-10T12:57:59;20.86;52.46
63051;SHT30;49136;47.416;19.402;2023-05-10T13:00:25;21.44;50.14
63051;SHT30;49136;47.416;19.402;2023-05-10T13:02:50;22.55;50.18
63051;SHT30;49136;47.416;19.402;2023-05-10T13:05:16;22.87;48.30
63051;SHT30;49136;47.416;19.402;2023-05-10T13:07:41;22.31;49.46
63051;SHT30;49136;47.416;19.402;2023-05-10T13:10:09;22.62;49.99
63051;SHT30;49136;47.416;19.402;2023-05-10T13:12:35;22.70;49.67
63051;SHT30;49136;47.416;19.402;2023-05-10T13:15:00;21.77;48.48
63051;SHT30;49136;47.416;19.402;2023-05-10T13:17:26;22.00;50.04
63051;SHT30;49136;47.416;19.402;2023-05-10T13:19:51;22.62;48.94
63051;SHT30;49136;47.416;19.402;2023-05-10T13:22:17;23.03;47.35
63051;SHT30;49136;47.416;19.402;2023-05-10T13:24:42;22.83;47.65
63051;SHT30;49136;47.416;19.402;2023-05-10T13:27:08;21.24;48.64
63051;SHT30;49136;47.416;19.402;2023-05-10T13:29:33;22.07;52.75
63051;SHT30;49136;47.416;19.402;2023-05-10T13:31:59;21.73;50.33
63051;SHT30;49136;47.416;19.402;2023-05-10T13:34:24;21.44;51.27
63051;SHT30;49136;47.416;19.402;2023-05-10T13:36:50;21.48;48.87
63051;SHT30;49136;47.416;19.402;2023-05-10T13:39:15;22.18;50.77
63051;SHT30;49136;47.416;19.402;2023-05-10T13:41:43;22.24;48.07
63051;SHT30;49136;47.416;19.402;2023-05-10T13:44:12;21.94;48.91
63051;SHT30;49136;47.416;19.402;2023-05-10T13:46:38;22.07;46.33
63051;SHT30;49136;47.416;19.402;2023-05-10T13:49:04;21.56;46.41
63051;SHT30;49136;47.416;19.402;2023-05-10T13:51:29;20.55;47.52
63051;SHT30;49136;47.416;19.402;2023-05-10T13:53:57;20.68;48.11
63051;SHT30;49136;47.416;19.402;2023-05-10T13:56:22;21.30;48.73
63051;SHT30;49136;47.416;19.402;2023-05-10T13:58:48;22.15;49.28
63051;SHT30;49136;47.416;19.402;2023-05-10T14:01:14;22.22;48.95
63051;SHT30;49136;47.416;19.402;2023-05-10T14:03:39;21.56;50.49
63051;SHT30;49136;47.416;19.402;2023-05-10T14:06:05;20.62;51.08
63051;SHT30;49136;47.416;19.402;2023-05-10T14:08:32;20.17;51.59
63051;SHT30;49136;47.416;19.402;2023-05-10T14:10:57;20.03;54.48
63051;SHT30;49136;47.416;19.402;2023-05-10T14:13:23;19.46;51.45
63051;SHT30;49136;47.416;19.402;2023-05-10T14:15:49;19.79;52.95
63051;SHT30;49136;47.416;19.402;2023-05-10T14:18:15;19.57;51.51
63051;SHT30;49136;47.416;19.402;2023-05-10T14:20:40;19.68;51.58
63051;SHT30;49136;47.416;19.402;2023-05-10T14:23:06;19.72;52.24
63051;SHT30;49136;47.416;19.402;2023-05-10T14:25:31;19.97;52.04
63051;SHT30;49136;47.416;19.402;2023-05-10T14:27:56;19.66;50.34
63051;SHT30;49136;47.416;19.402;2023-05-10T14:30:22;19.75;51.84
63051;SHT30;49136;47.416;19.402;2023-05-10T14:32:47;19.57;50.86
63051;SHT30;49136;47.416;19.402;2023-05-10T14:35:13;19.53;51.58
63051;SHT30;49136;47.416;19.402;2023-05-10T14:37:38;19.38;52.39
63051;SHT30;49136;47.416;19.402;2023-05-10T14:40:05;19.28;52.60
63051;SHT30;49136;47.416;19.402;2023-05-10T14:42:31;19.72;52.73
63051;SHT30;49136;47.416;19.402;2023-05-10T14:44:57;20.31;51.96
63051;SHT30;49136;47.416;19.402;2023-05-10T14:47:22;20.44;49.75
63051;SHT30;49136;47.416;19.402;2023-05-10T14:49:48;20.64;49.27
63051;SHT30;49136;47.416;19.402;2023-05-10T14:52:13;20.37;49.17
63051;SHT30;49136;47.416;19.402;2023-05-10T14:54:39;19.97;52.14
63051;SHT30;49136;47.416;19.402;2023-05-10T14:57:06;19.72;50.78
63051;SHT30;49136;47.416;19.402;2023-05-10T14:59:32;19.78;51.91
63051;SHT30;49136;47.416;19.402;2023-05-10T15:01:57;19.85;50.52
63051;SHT30;49136;47.416;19.402;2023-05-10T15:04:22;19.93;50.18
63051;SHT30;49136;47.416;19.402;2023-05-10T15:06:48;19.66;50.70
63051;SHT30;49136;47.416;19.402;2023-05-10T15:09:13;19.33;51.59
63051;SHT30;49136;47.416;19.402;2023-05-10T15:11:39;20.34;53.45
63051;SHT30;49136;47.416;19.402;2023-05-10T15:14:04;20.45;51.35
63051;SHT30;49136;47.416;19.402;2023-05-10T15:16:29;20.30;50.68
63051;SHT30;49136;47.416;19.402;2023-05-10T15:18:55;19.96;51.24
63051;SHT30;49136;47.416;19.402;2023-05-10T15:21:20;19.90;52.60
63051;SHT30;49136;47.416;19.402;2023-05-10T15:23:46;19.86;52.18
63051;SHT30;49136;47.416;19.402;2023-05-10T15:26:12;19.53;51.46
63051;SHT30;49136;47.416;19.402;2023-05-10T15:28:37;19.68;52.90
63051;SHT30;49136;47.416;19.402;2023-05-10T15:31:03;19.55;51.19
63051;SHT30;49136;47.416;19.402;2023-05-10T15:33:28;19.58;52.34
63051;SHT30;49136;47.416;19.402;2023-05-10T15:35:54;19.40;52.10
63051;SHT30;49136;47.416;19.402;2023-05-10T15:38:19;18.82;52.48
63051;SHT30;49136;47.416;19.402;2023-05-10T15:40:45;18.82;53.37
63051;SHT30;49136;47.416;19.402;2023-05-10T15:43:10;19.00;55.01
63051;SHT30;49136;47.416;19.402;2023-05-10T15:45:36;18.99;53.83
63051;SHT30;49136;47.416;19.402;2023-05-10T15:48:02;18.96;53.27